createdAt,value
2023-05-14T00:00:44.598Z,14.37
2023-05-14T00:01:48.482Z,14.33
2023-05-14T00:02:52.305Z,14.32
2023-05-14T00:03:55.807Z,14.28
2023-05-14T00:04:59.391Z,14.30
2023-05-14T00:06:02.988Z,14.27
2023-05-14T00:07:06.226Z,14.25
2023-05-14T00:08:09.625Z,14.28
2023-05-14T00:09:13.648Z,14.27
2023-05-14T00:10:18.169Z,14.28
2023-05-14T00:11:21.909Z,14.24
2023-05-14T00:12:25.438Z,14.21
2023-05-14T00:13:28.713Z,14.23
2023-05-14T00:14:32.003Z,14.21
2023-05-14T00:15:35.520Z,14.18
2023-05-14T00:16:39.298Z,14.14
2023-05-14T00:17:43.504Z,14.16
2023-05-14T00:18:47.043Z,14.17
2023-05-14T00:19:50.678Z,14.16
2023-05-14T00:20:55.290Z,14.16
2023-05-14T00:21:58.755Z,14.13
2023-05-14T00:23:02.234Z,14.12
2023-05-14T00:24:05.720Z,14.09
2023-05-14T00:25:09.675Z,14.10
2023-05-14T00:26:13.252Z,14.10
2023-05-14T00:27:17.385Z,14.07
2023-05-14T00:28:20.764Z,14.08
2023-05-14T00:29:24.894Z,14.09
2023-05-14T00:30:28.189Z,14.12
2023-05-14T00:31:31.289Z,14.11
2023-05-14T00:32:34.616Z,14.12
2023-05-14T00:33:37.606Z,14.09
2023-05-14T00:34:41.355Z,14.09
2023-05-14T00:35:45.025Z,14.12
2023-05-14T00:36:48.578Z,14.12
2023-05-14T00:37:51.896Z,14.09
2023-05-14T00:38:55.124Z,14.08
2023-05-14T00:39:59.025Z,14.09
2023-05-14T00:41:02.735Z,14.07
2023-05-14T00:42:06.982Z,14.07
2023-05-14T00:43:10.426Z,14.08
2023-05-14T00:44:14.186Z,14.05
2023-05-14T00:45:17.937Z,14.03
2023-05-14T00:46:21.142Z,14.00
2023-05-14T00:47:24.242Z,13.96
2023-05-14T00:48:27.661Z,13.92
2023-05-14T00:49:31.556Z,13.93
2023-05-14T00:50:35.178Z,13.92
2023-05-14T00:51:38.591Z,13.91
2023-05-14T00:52:42.324Z,13.88
2023-05-14T00:53:46.757Z,13.86
2023-05-14T00:54:50.452Z,13.83
2023-05-14T00:55:54.115Z,13.81
2023-05-14T00:56:57.904Z,13.81
2023-05-14T00:58:01.394Z,13.81
2023-05-14T00:59:05.103Z,13.81
2023-05-14T01:00:09.829Z,13.83
2023-05-14T01:01:16.418Z,13.86
2023-05-14T01:02:19.770Z,13.87
2023-05-14T01:03:23.755Z,13.84
2023-05-14T01:04:27.709Z,13.83
2023-05-14T01:05:41.418Z,13.83
2023-05-14T01:06:53.292Z,13.87
2023-05-14T01:08:07.742Z,13.86
2023-05-14T01:09:51.342Z,13.83
2023-05-14T01:11:18.087Z,13.85
2023-05-14T01:12:41.641Z,13.87
2023-05-14T01:14:15.390Z,13.86
2023-05-14T01:15:22.901Z,13.85
2023-05-14T01:16:27.881Z,13.85
2023-05-14T01:17:33.257Z,13.85
2023-05-14T01:18:37.224Z,13.85
2023-05-14T01:19:41.735Z,13.81
2023-05-14T01:20:46.240Z,13.79
2023-05-14T01:21:49.717Z,13.80
2023-05-14T01:22:54.107Z,13.81
2023-05-14T01:23:57.606Z,13.81
2023-05-14T01:25:01.335Z,13.82
2023-05-14T01:26:05.468Z,13.82
2023-05-14T01:27:32.938Z,13.83
2023-05-14T01:28:36.942Z,13.83
2023-05-14T01:29:41.652Z,13.82
2023-05-14T01:30:58.515Z,13.84
2023-05-14T01:32:02.328Z,13.84
2023-05-14T01:33:12.739Z,13.81
2023-05-14T01:34:20.802Z,13.79
2023-05-14T01:35:27.949Z,13.77
2023-05-14T01:36:31.827Z,13.75
2023-05-14T01:37:35.073Z,13.69
2023-05-14T01:38:38.819Z,13.65
2023-05-14T01:39:42.485Z,13.63
2023-05-14T01:40:46.635Z,13.61
2023-05-14T01:41:50.603Z,13.61
2023-05-14T01:42:54.593Z,13.61
2023-05-14T01:43:57.857Z,13.62
2023-05-14T01:45:01.320Z,13.61
2023-05-14T01:46:05.844Z,13.59
2023-05-14T01:47:09.455Z,13.57
2023-05-14T01:48:12.510Z,13.59
2023-05-14T01:49:18.974Z,13.57
2023-05-14T01:50:22.459Z,13.54
2023-05-14T01:51:25.924Z,13.53
2023-05-14T01:52:28.885Z,13.53
2023-05-14T01:53:31.956Z,13.52
2023-05-14T01:54:35.226Z,13.51
2023-05-14T01:55:39.243Z,13.56
2023-05-14T01:56:42.747Z,13.57
2023-05-14T01:57:46.206Z,13.55
2023-05-14T01:58:49.819Z,13.56
2023-05-14T01:59:53.373Z,13.56
2023-05-14T02:00:57.011Z,13.54
2023-05-14T02:02:00.480Z,13.54
2023-05-14T02:03:04.747Z,13.54
2023-05-14T02:04:08.207Z,13.51
2023-05-14T02:05:12.921Z,13.49
2023-05-14T02:06:15.942Z,13.46
2023-05-14T02:07:19.002Z,13.45
2023-05-14T02:08:22.018Z,13.42
2023-05-14T02:09:25.735Z,13.39
2023-05-14T02:10:29.088Z,13.37
2023-05-14T02:11:31.929Z,13.37
2023-05-14T02:12:35.446Z,13.35
2023-05-14T02:13:38.846Z,13.33
2023-05-14T02:14:41.764Z,13.32
2023-05-14T02:15:45.028Z,13.31
2023-05-14T02:16:48.247Z,13.30
2023-05-14T02:17:51.947Z,13.27
2023-05-14T02:18:55.713Z,13.27
2023-05-14T02:19:59.331Z,13.28
2023-05-14T02:21:02.552Z,13.27
2023-05-14T02:22:06.257Z,13.26
2023-05-14T02:23:10.448Z,13.28
2023-05-14T02:24:14.022Z,13.32
2023-05-14T02:25:17.027Z,13.32
2023-05-14T02:26:20.805Z,13.34
2023-05-14T02:27:24.220Z,13.35
2023-05-14T02:28:27.946Z,13.35
2023-05-14T02:29:31.567Z,13.32
2023-05-14T02:30:34.593Z,13.35
2023-05-14T02:31:38.482Z,13.37
2023-05-14T02:32:42.522Z,13.36
2023-05-14T02:33:46.379Z,13.34
2023-05-14T02:34:49.795Z,13.30
2023-05-14T02:35:53.271Z,13.35
2023-05-14T02:36:56.756Z,13.33
2023-05-14T02:38:00.159Z,13.34
2023-05-14T02:39:05.378Z,13.36
2023-05-14T02:40:10.032Z,13.35
2023-05-14T02:41:12.872Z,13.34
2023-05-14T02:42:16.253Z,13.34
2023-05-14T02:43:19.885Z,13.33
2023-05-14T02:44:23.331Z,13.33
2023-05-14T02:45:26.651Z,13.34
2023-05-14T02:46:31.549Z,13.33
2023-05-14T02:47:37.561Z,13.32
2023-05-14T02:48:41.912Z,13.32
2023-05-14T02:49:45.715Z,13.27
2023-05-14T02:50:50.581Z,13.27
2023-05-14T02:51:55.316Z,13.27
2023-05-14T02:52:58.525Z,13.29
2023-05-14T02:54:01.768Z,13.28
2023-05-14T02:55:06.120Z,13.29
2023-05-14T02:56:10.069Z,13.28
2023-05-14T02:57:13.292Z,13.27
2023-05-14T02:58:16.896Z,13.25
2023-05-14T02:59:20.518Z,13.24
2023-05-14T03:00:24.627Z,13.23
2023-05-14T03:01:28.570Z,13.22
2023-05-14T03:02:32.369Z,13.18
2023-05-14T03:03:36.657Z,13.20
2023-05-14T03:04:40.285Z,13.21
2023-05-14T03:05:44.017Z,13.21
2023-05-14T03:06:47.676Z,13.24
2023-05-14T03:07:52.335Z,13.27
2023-05-14T03:08:55.908Z,13.27
2023-05-14T03:10:00.804Z,13.29
2023-05-14T03:11:04.419Z,13.31
2023-05-14T03:12:08.561Z,13.26
2023-05-14T03:13:12.060Z,13.28
2023-05-14T03:14:15.075Z,13.23
2023-05-14T03:15:18.268Z,13.25
2023-05-14T03:16:21.301Z,13.25
2023-05-14T03:17:25.123Z,13.25
2023-05-14T03:18:31.172Z,13.24
2023-05-14T03:19:34.610Z,13.24
2023-05-14T03:20:38.243Z,13.23
2023-05-14T03:21:42.800Z,13.21
2023-05-14T03:22:46.558Z,13.20
2023-05-14T03:23:50.383Z,13.17
2023-05-14T03:24:55.380Z,13.13
2023-05-14T03:25:59.206Z,13.09
2023-05-14T03:27:03.038Z,13.10
2023-05-14T03:28:06.810Z,13.10
2023-05-14T03:29:11.728Z,13.09
2023-05-14T03:30:16.909Z,13.09
2023-05-14T03:31:19.917Z,13.08
2023-05-14T03:32:23.386Z,13.07
2023-05-14T03:33:26.897Z,13.06
2023-05-14T03:34:30.261Z,13.07
2023-05-14T03:35:33.552Z,13.05
2023-05-14T03:36:40.371Z,13.05
2023-05-14T03:37:43.512Z,13.03
2023-05-14T03:38:46.932Z,13.02
2023-05-14T03:39:51.488Z,12.98
2023-05-14T03:40:54.491Z,13.00
2023-05-14T03:41:59.263Z,12.96
2023-05-14T03:43:02.727Z,12.95
2023-05-14T03:44:07.270Z,12.94
2023-05-14T03:45:11.003Z,12.91
2023-05-14T03:46:14.842Z,12.88
2023-05-14T03:47:18.201Z,12.86
2023-05-14T03:48:21.650Z,12.87
2023-05-14T03:49:26.154Z,12.87
2023-05-14T03:50:29.375Z,12.87
2023-05-14T03:51:32.426Z,12.84
2023-05-14T03:52:36.117Z,12.82
2023-05-14T03:53:39.324Z,12.82
2023-05-14T03:54:43.176Z,12.79
2023-05-14T03:55:46.851Z,12.78
2023-05-14T03:56:50.382Z,12.79
2023-05-14T03:57:53.694Z,12.81
2023-05-14T03:58:57.293Z,12.83
2023-05-14T04:00:00.702Z,12.84
2023-05-14T04:01:03.676Z,12.81
2023-05-14T04:02:07.683Z,12.79
2023-05-14T04:03:11.657Z,12.79
2023-05-14T04:04:15.158Z,12.79
2023-05-14T04:05:18.297Z,12.76
2023-05-14T04:06:22.188Z,12.76
2023-05-14T04:07:26.058Z,12.73
2023-05-14T04:08:29.537Z,12.75
2023-05-14T04:09:33.175Z,12.76
2023-05-14T04:10:36.926Z,12.74
2023-05-14T04:11:40.659Z,12.74
2023-05-14T04:12:43.929Z,12.72
2023-05-14T04:13:47.083Z,12.69
2023-05-14T04:14:51.098Z,12.68
2023-05-14T04:15:54.122Z,12.68
2023-05-14T04:16:58.995Z,12.69
2023-05-14T04:18:03.632Z,12.69
2023-05-14T04:19:06.930Z,12.69
2023-05-14T04:20:11.253Z,12.69
2023-05-14T04:21:14.727Z,12.69
2023-05-14T04:22:17.815Z,12.70
2023-05-14T04:23:21.149Z,12.67
2023-05-14T04:24:24.837Z,12.64
2023-05-14T04:25:28.429Z,12.64
2023-05-14T04:26:31.469Z,12.63
2023-05-14T04:27:35.327Z,12.61
2023-05-14T04:28:38.634Z,12.60
2023-05-14T04:29:41.965Z,12.60
2023-05-14T04:30:46.252Z,12.56
2023-05-14T04:31:50.672Z,12.60
2023-05-14T04:32:53.766Z,12.60
2023-05-14T04:33:57.199Z,12.60
2023-05-14T04:35:00.496Z,12.56
2023-05-14T04:36:03.539Z,12.52
2023-05-14T04:37:07.362Z,12.49
2023-05-14T04:38:12.290Z,12.46
2023-05-14T04:39:15.578Z,12.45
2023-05-14T04:40:19.861Z,12.46
2023-05-14T04:41:23.511Z,12.43
2023-05-14T04:42:26.963Z,12.43
2023-05-14T04:43:30.722Z,12.44
2023-05-14T04:44:35.076Z,12.45
2023-05-14T04:45:38.763Z,12.44
2023-05-14T04:46:42.465Z,12.44
2023-05-14T04:47:47.307Z,12.44
2023-05-14T04:48:51.329Z,12.44
2023-05-14T04:49:54.456Z,12.43
2023-05-14T04:50:57.415Z,12.42
2023-05-14T04:52:00.602Z,12.43
2023-05-14T04:53:04.301Z,12.45
2023-05-14T04:54:07.743Z,12.44
2023-05-14T04:55:11.341Z,12.45
2023-05-14T04:56:14.898Z,12.43
2023-05-14T04:57:18.084Z,12.44
2023-05-14T04:58:21.938Z,12.44
2023-05-14T04:59:25.764Z,12.42
2023-05-14T05:00:29.709Z,12.43
2023-05-14T05:01:33.023Z,12.43
2023-05-14T05:02:36.808Z,12.42
2023-05-14T05:03:40.147Z,12.42
2023-05-14T05:04:43.314Z,12.43
2023-05-14T05:05:46.982Z,12.43
2023-05-14T05:06:50.731Z,12.42
2023-05-14T05:07:54.349Z,12.42
2023-05-14T05:08:59.067Z,12.40
2023-05-14T05:10:04.431Z,12.41
2023-05-14T05:11:07.836Z,12.45
2023-05-14T05:12:11.045Z,12.46
2023-05-14T05:13:14.464Z,12.48
2023-05-14T05:14:18.327Z,12.47
2023-05-14T05:15:22.366Z,12.44
2023-05-14T05:16:26.834Z,12.44
2023-05-14T05:17:30.876Z,12.43
2023-05-14T05:18:34.174Z,12.42
2023-05-14T05:19:43.812Z,12.40
2023-05-14T05:20:47.882Z,12.38
2023-05-14T05:21:51.695Z,12.40
2023-05-14T05:22:54.862Z,12.41
2023-05-14T05:23:58.530Z,12.42
2023-05-14T05:25:02.107Z,12.42
2023-05-14T05:26:05.598Z,12.42
2023-05-14T05:27:08.648Z,12.44
2023-05-14T05:28:11.842Z,12.44
2023-05-14T05:29:15.220Z,12.47
2023-05-14T05:30:18.097Z,12.48
2023-05-14T05:31:21.877Z,12.51
2023-05-14T05:32:25.958Z,12.55
2023-05-14T05:33:29.188Z,12.60
2023-05-14T05:34:32.820Z,12.65
2023-05-14T05:35:35.802Z,12.67
2023-05-14T05:36:38.695Z,12.71
2023-05-14T05:37:43.059Z,12.75
2023-05-14T05:38:46.458Z,12.78
2023-05-14T05:39:49.984Z,12.84
2023-05-14T05:40:53.969Z,12.92
2023-05-14T05:41:56.893Z,12.97
2023-05-14T05:42:59.674Z,13.00
2023-05-14T05:44:03.370Z,13.06
2023-05-14T05:45:07.602Z,13.11
2023-05-14T05:46:11.096Z,13.17
2023-05-14T05:47:14.264Z,13.22
2023-05-14T05:48:17.550Z,13.27
2023-05-14T05:49:20.761Z,13.35
2023-05-14T05:50:25.402Z,13.42
2023-05-14T05:51:29.140Z,13.47
2023-05-14T05:52:32.559Z,13.54
2023-05-14T05:53:36.246Z,13.60
2023-05-14T05:54:40.326Z,13.68
2023-05-14T05:55:43.473Z,13.73
2023-05-14T05:56:47.018Z,13.82
2023-05-14T05:57:50.330Z,14.07
2023-05-14T05:58:53.737Z,14.50
2023-05-14T05:59:57.416Z,15.10
2023-05-14T06:01:01.227Z,15.81
2023-05-14T06:02:04.745Z,16.60
2023-05-14T06:03:08.331Z,17.39
2023-05-14T06:04:11.914Z,18.17
2023-05-14T06:05:15.605Z,18.92
2023-05-14T06:06:19.164Z,19.59
2023-05-14T06:07:22.721Z,20.16
2023-05-14T06:08:26.074Z,20.67
2023-05-14T06:09:29.580Z,21.19
2023-05-14T06:10:35.042Z,21.68
2023-05-14T06:11:38.557Z,22.18
2023-05-14T06:12:42.268Z,22.63
2023-05-14T06:13:45.754Z,23.03
2023-05-14T06:14:49.122Z,23.45
2023-05-14T06:15:52.697Z,23.76
2023-05-14T06:16:55.987Z,24.05
2023-05-14T06:17:59.441Z,24.36
2023-05-14T06:19:03.389Z,24.72
2023-05-14T06:20:08.494Z,25.09
2023-05-14T06:21:11.661Z,25.45
2023-05-14T06:22:15.306Z,25.85
2023-05-14T06:23:18.928Z,26.20
2023-05-14T06:24:22.210Z,26.61
2023-05-14T06:25:25.533Z,27.01
2023-05-14T06:26:28.518Z,27.41
2023-05-14T06:27:31.532Z,27.74
2023-05-14T06:28:35.033Z,28.07
2023-05-14T06:29:39.106Z,28.34
2023-05-14T06:30:42.478Z,28.64
2023-05-14T06:31:46.074Z,28.93
2023-05-14T06:32:49.203Z,29.24
2023-05-14T06:33:52.230Z,29.51
2023-05-14T06:34:55.811Z,29.83
2023-05-14T06:36:05.726Z,30.13
2023-05-14T06:37:10.487Z,30.37
2023-05-14T06:38:14.184Z,30.64
2023-05-14T06:39:17.504Z,30.87
2023-05-14T06:40:21.293Z,31.14
2023-05-14T06:41:25.225Z,31.38
2023-05-14T06:42:28.568Z,31.68
2023-05-14T06:43:31.876Z,31.94
2023-05-14T06:44:35.492Z,32.20
2023-05-14T06:45:38.507Z,32.43
2023-05-14T06:46:42.082Z,32.66
2023-05-14T06:47:45.488Z,32.91
2023-05-14T06:48:49.005Z,33.16
2023-05-14T06:49:52.815Z,33.44
2023-05-14T06:50:56.822Z,33.65
2023-05-14T06:52:00.245Z,33.82
2023-05-14T06:53:03.366Z,33.99
2023-05-14T06:54:06.590Z,34.11
2023-05-14T06:55:09.823Z,34.28
2023-05-14T06:56:14.086Z,34.47
2023-05-14T06:57:17.870Z,34.60
2023-05-14T06:58:21.431Z,34.75
2023-05-14T06:59:24.898Z,34.98
2023-05-14T07:00:28.957Z,35.21
2023-05-14T07:01:32.267Z,35.40
2023-05-14T07:02:36.415Z,35.56
2023-05-14T07:03:40.117Z,35.66
2023-05-14T07:04:43.423Z,35.72
2023-05-14T07:05:47.231Z,35.79
2023-05-14T07:06:50.820Z,35.86
2023-05-14T07:07:53.962Z,36.05
2023-05-14T07:08:57.433Z,36.27
2023-05-14T07:10:01.215Z,36.41
2023-05-14T07:11:04.762Z,36.58
2023-05-14T07:12:08.595Z,36.74
2023-05-14T07:13:11.953Z,36.84
2023-05-14T07:14:15.187Z,36.92
2023-05-14T07:15:18.688Z,37.05
2023-05-14T07:16:21.968Z,37.06
2023-05-14T07:17:25.037Z,37.20
2023-05-14T07:18:28.857Z,37.33
2023-05-14T07:19:32.556Z,37.48
2023-05-14T07:20:36.175Z,37.72
2023-05-14T07:21:39.445Z,37.90
2023-05-14T07:22:42.504Z,38.03
2023-05-14T07:23:45.676Z,38.08
2023-05-14T07:24:48.553Z,38.18
2023-05-14T07:25:52.188Z,38.16
2023-05-14T07:26:57.808Z,38.15
2023-05-14T07:28:01.296Z,38.21
2023-05-14T07:29:04.695Z,38.34
2023-05-14T07:30:09.322Z,38.28
2023-05-14T07:31:12.233Z,38.19
2023-05-14T07:32:15.940Z,38.23
2023-05-14T07:33:19.378Z,37.98
2023-05-14T07:34:23.205Z,38.10
2023-05-14T07:35:26.623Z,38.25
2023-05-14T07:36:29.985Z,38.40
2023-05-14T07:37:33.812Z,38.45
2023-05-14T07:38:37.237Z,38.65
2023-05-14T07:39:42.606Z,38.71
2023-05-14T07:40:46.207Z,38.97
2023-05-14T07:41:50.716Z,38.85
2023-05-14T07:42:53.949Z,38.86
2023-05-14T07:43:57.326Z,38.79
2023-05-14T07:45:00.746Z,38.74
2023-05-14T07:46:04.033Z,38.82
2023-05-14T07:47:09.572Z,38.77
2023-05-14T07:48:13.411Z,38.85
2023-05-14T07:49:16.441Z,38.60
2023-05-14T07:50:20.248Z,38.85
2023-05-14T07:51:23.717Z,38.75
2023-05-14T07:52:26.832Z,38.33
2023-05-14T07:53:30.226Z,38.57
2023-05-14T07:54:34.190Z,38.45
2023-05-14T07:55:37.741Z,38.28
2023-05-14T07:56:41.164Z,38.58
2023-05-14T07:57:44.654Z,38.81
2023-05-14T07:58:47.787Z,38.81
2023-05-14T07:59:51.050Z,38.64
2023-05-14T08:00:54.373Z,38.20
2023-05-14T08:01:58.542Z,38.36
2023-05-14T08:03:02.219Z,38.67
2023-05-14T08:04:05.868Z,38.05
2023-05-14T08:05:10.352Z,38.60
2023-05-14T08:06:13.961Z,38.75
2023-05-14T08:07:18.178Z,39.10
2023-05-14T08:08:21.484Z,39.16
2023-05-14T08:09:24.779Z,39.64
2023-05-14T08:10:28.242Z,40.00
2023-05-14T08:11:31.624Z,40.28
2023-05-14T08:12:34.894Z,40.40
2023-05-14T08:13:38.401Z,40.54
2023-05-14T08:14:42.212Z,40.35
2023-05-14T08:15:45.752Z,40.26
2023-05-14T08:16:49.217Z,39.98
2023-05-14T08:17:52.776Z,39.83
2023-05-14T08:18:56.595Z,39.70
2023-05-14T08:20:00.195Z,39.96
2023-05-14T08:21:04.149Z,39.14
2023-05-14T08:22:07.699Z,39.68
2023-05-14T08:23:11.271Z,39.93
2023-05-14T08:24:15.139Z,40.05
2023-05-14T08:25:18.641Z,40.06
2023-05-14T08:26:22.754Z,40.04
2023-05-14T08:27:27.225Z,40.29
2023-05-14T08:28:30.150Z,40.07
2023-05-14T08:29:33.981Z,40.34
2023-05-14T08:30:37.593Z,40.63
2023-05-14T08:31:41.930Z,40.51
2023-05-14T08:32:45.615Z,40.65
2023-05-14T08:33:48.800Z,40.86
2023-05-14T08:34:52.160Z,40.97
2023-05-14T08:35:55.434Z,40.52
2023-05-14T08:36:58.596Z,40.71
2023-05-14T08:38:01.649Z,40.76
2023-05-14T08:39:04.570Z,40.84
2023-05-14T08:40:09.152Z,41.05
2023-05-14T08:41:12.539Z,40.99
2023-05-14T08:42:15.464Z,41.12
2023-05-14T08:43:20.110Z,40.68
2023-05-14T08:44:33.810Z,40.87
2023-05-14T08:45:37.723Z,41.06
2023-05-14T08:46:40.962Z,41.20
2023-05-14T08:47:44.565Z,41.39
2023-05-14T08:48:49.081Z,40.73
2023-05-14T08:50:10.407Z,41.05
2023-05-14T08:51:14.001Z,41.33
2023-05-14T08:52:18.123Z,41.66
2023-05-14T08:53:21.393Z,41.87
2023-05-14T08:54:26.223Z,42.13
2023-05-14T08:55:29.765Z,42.39
2023-05-14T08:56:34.177Z,42.34
2023-05-14T08:57:38.268Z,42.04
2023-05-14T08:58:41.748Z,41.20
2023-05-14T08:59:45.438Z,41.26
2023-05-14T09:00:49.071Z,40.40
2023-05-14T09:01:55.604Z,39.59
2023-05-14T09:02:58.787Z,40.20
2023-05-14T09:04:07.853Z,39.94
2023-05-14T09:05:11.578Z,39.89
2023-05-14T09:06:14.869Z,40.00
2023-05-14T09:07:18.815Z,39.88
2023-05-14T09:08:22.090Z,39.74
2023-05-14T09:09:25.246Z,40.39
2023-05-14T09:10:28.354Z,40.07
2023-05-14T09:11:31.966Z,39.44
2023-05-14T09:12:35.670Z,39.84
2023-05-14T09:13:40.304Z,40.36
2023-05-14T09:14:44.707Z,40.64
2023-05-14T09:15:47.564Z,40.30
2023-05-14T09:16:51.583Z,40.36
2023-05-14T09:17:55.391Z,39.87
2023-05-14T09:18:58.613Z,39.67
2023-05-14T09:20:01.737Z,40.05
2023-05-14T09:21:05.304Z,40.41
2023-05-14T09:22:13.341Z,40.19
2023-05-14T09:23:16.783Z,40.52
2023-05-14T09:24:24.853Z,41.02
2023-05-14T09:25:29.241Z,41.47
2023-05-14T09:26:33.588Z,41.51
2023-05-14T09:27:37.072Z,41.63
2023-05-14T09:28:43.301Z,41.48
2023-05-14T09:29:46.876Z,41.41
2023-05-14T09:30:53.335Z,41.95
2023-05-14T09:31:57.621Z,42.45
2023-05-14T09:33:01.362Z,42.76
2023-05-14T09:34:04.935Z,42.52
2023-05-14T09:35:33.869Z,42.64
2023-05-14T09:36:37.754Z,42.77
2023-05-14T09:37:45.346Z,43.21
2023-05-14T09:38:48.999Z,43.40
2023-05-14T09:39:52.300Z,43.56
2023-05-14T09:40:55.929Z,43.68
2023-05-14T09:41:59.748Z,43.87
2023-05-14T09:43:03.617Z,44.07
2023-05-14T09:44:06.835Z,44.18
2023-05-14T09:45:11.546Z,44.34
2023-05-14T09:46:14.712Z,44.47
2023-05-14T09:47:17.654Z,44.53
2023-05-14T09:48:20.724Z,44.61
2023-05-14T09:49:24.262Z,44.77
2023-05-14T09:50:27.785Z,44.84
2023-05-14T09:51:32.890Z,44.93
2023-05-14T09:52:36.333Z,44.85
2023-05-14T09:53:40.104Z,44.87
2023-05-14T09:54:43.644Z,44.85
2023-05-14T09:55:47.151Z,45.04
2023-05-14T09:56:50.069Z,45.16
2023-05-14T09:57:53.122Z,45.32
2023-05-14T09:58:56.338Z,45.49
2023-05-14T09:59:59.790Z,45.27
2023-05-14T10:01:03.112Z,45.29
2023-05-14T10:02:06.117Z,44.82
2023-05-14T10:03:09.560Z,44.57
2023-05-14T10:04:12.558Z,44.08
2023-05-14T10:05:17.143Z,44.08
2023-05-14T10:06:21.690Z,44.00
2023-05-14T10:07:28.390Z,43.92
2023-05-14T10:08:34.696Z,44.20
2023-05-14T10:09:38.422Z,44.39
2023-05-14T10:10:42.009Z,44.47
2023-05-14T10:11:46.815Z,44.60
2023-05-14T10:13:00.039Z,44.67
2023-05-14T10:14:08.498Z,44.84
2023-05-14T10:15:18.883Z,44.85
2023-05-14T10:16:30.000Z,44.84
2023-05-14T10:17:34.419Z,44.74
2023-05-14T10:18:42.144Z,44.95
2023-05-14T10:19:51.544Z,44.80
2023-05-14T10:21:02.222Z,44.76
2023-05-14T10:22:07.733Z,44.42
2023-05-14T10:23:11.687Z,44.38
2023-05-14T10:24:14.680Z,43.74
2023-05-14T10:25:18.229Z,43.97
2023-05-14T10:26:23.964Z,44.13
2023-05-14T10:27:27.384Z,44.35
2023-05-14T10:28:31.490Z,42.28
2023-05-14T10:29:35.297Z,41.83
2023-05-14T10:30:46.445Z,42.26
2023-05-14T10:31:56.681Z,42.45
2023-05-14T10:33:10.430Z,42.87
2023-05-14T10:34:33.552Z,43.49
2023-05-14T10:35:58.178Z,43.59
2023-05-14T10:37:21.377Z,42.66
2023-05-14T10:38:39.774Z,42.10
2023-05-14T10:39:46.661Z,42.96
2023-05-14T10:40:51.580Z,43.28
2023-05-14T10:41:56.415Z,43.48
2023-05-14T10:42:59.781Z,43.66
2023-05-14T10:44:08.952Z,43.42
2023-05-14T10:45:14.044Z,42.09
2023-05-14T10:46:17.230Z,42.47
2023-05-14T10:47:20.515Z,42.35
2023-05-14T10:48:24.237Z,41.24
2023-05-14T10:49:42.457Z,40.26
2023-05-14T10:50:48.687Z,40.55
2023-05-14T10:51:54.352Z,40.96
2023-05-14T10:52:58.022Z,41.24
2023-05-14T10:54:02.449Z,41.41
2023-05-14T10:55:10.472Z,41.32
2023-05-14T10:56:14.780Z,41.38
2023-05-14T10:57:19.238Z,41.42
2023-05-14T10:58:22.470Z,40.99
2023-05-14T10:59:29.002Z,41.29
2023-05-14T11:00:34.668Z,40.82
2023-05-14T11:01:37.923Z,40.64
2023-05-14T11:02:42.463Z,40.90
2023-05-14T11:03:47.227Z,41.36
2023-05-14T11:05:11.649Z,40.80
2023-05-14T11:06:15.797Z,41.27
2023-05-14T11:07:20.971Z,41.38
2023-05-14T11:08:26.494Z,41.48
2023-05-14T11:09:30.881Z,40.71
2023-05-14T11:10:34.134Z,40.03
2023-05-14T11:11:37.609Z,40.19
2023-05-14T11:12:42.591Z,40.48
2023-05-14T11:13:46.336Z,39.92
2023-05-14T11:14:49.889Z,39.76
2023-05-14T11:15:53.244Z,39.77
2023-05-14T11:16:56.661Z,40.31
2023-05-14T11:18:00.624Z,39.66
2023-05-14T11:19:04.897Z,39.49
2023-05-14T11:20:09.119Z,38.48
2023-05-14T11:21:12.684Z,38.65
2023-05-14T11:22:16.543Z,38.48
2023-05-14T11:23:20.120Z,38.76
2023-05-14T11:24:23.211Z,39.14
2023-05-14T11:25:26.975Z,38.58
2023-05-14T11:26:30.908Z,38.07
2023-05-14T11:27:38.825Z,38.42
2023-05-14T11:28:42.293Z,37.90
2023-05-14T11:29:47.128Z,38.18
2023-05-14T11:30:54.281Z,38.71
2023-05-14T11:31:57.934Z,38.69
2023-05-14T11:33:02.204Z,38.33
2023-05-14T11:34:07.682Z,37.64
2023-05-14T11:35:11.235Z,37.22
2023-05-14T11:36:15.147Z,37.95
2023-05-14T11:37:18.657Z,38.16
2023-05-14T11:38:22.168Z,38.19
2023-05-14T11:39:25.961Z,38.05
2023-05-14T11:40:29.355Z,37.42
2023-05-14T11:41:32.675Z,37.88
2023-05-14T11:42:36.022Z,37.38
2023-05-14T11:43:39.613Z,36.72
2023-05-14T11:44:45.372Z,36.39
2023-05-14T11:45:53.421Z,35.91
2023-05-14T11:46:57.756Z,35.44
2023-05-14T11:48:01.694Z,34.56
2023-05-14T11:49:07.833Z,34.04
2023-05-14T11:50:12.132Z,34.21
2023-05-14T11:51:15.765Z,34.17
2023-05-14T11:52:20.158Z,33.98
2023-05-14T11:53:27.712Z,33.81
2023-05-14T11:54:30.913Z,33.71
2023-05-14T11:55:37.268Z,33.68
2023-05-14T11:56:40.942Z,33.22
2023-05-14T11:57:44.482Z,33.20
2023-05-14T11:58:50.767Z,33.17
2023-05-14T12:00:00.162Z,33.29
2023-05-14T12:01:03.881Z,33.28
2023-05-14T12:02:09.279Z,32.96
2023-05-14T12:03:12.869Z,32.93
2023-05-14T12:04:16.060Z,31.94
2023-05-14T12:05:20.114Z,31.67
2023-05-14T12:06:23.437Z,31.20
2023-05-14T12:07:30.147Z,30.85
2023-05-14T12:08:33.286Z,30.93
2023-05-14T12:09:50.279Z,30.87
2023-05-14T12:10:56.527Z,30.29
2023-05-14T12:12:00.040Z,30.17
2023-05-14T12:13:08.184Z,30.10
2023-05-14T12:14:31.937Z,30.28
2023-05-14T12:15:35.600Z,29.74
2023-05-14T12:16:40.999Z,29.63
2023-05-14T12:17:44.390Z,29.23
2023-05-14T12:18:47.682Z,28.74
2023-05-14T12:19:52.696Z,28.73
2023-05-14T12:20:56.395Z,28.62
2023-05-14T12:22:01.627Z,28.41
2023-05-14T12:23:05.199Z,28.37
2023-05-14T12:24:18.241Z,28.57
2023-05-14T12:25:21.667Z,28.52
2023-05-14T12:26:25.238Z,28.35
2023-05-14T12:27:29.307Z,28.67
2023-05-14T12:28:33.473Z,28.23
2023-05-14T12:29:41.612Z,28.04
2023-05-14T12:30:44.720Z,27.90
2023-05-14T12:31:49.364Z,27.85
2023-05-14T12:32:54.588Z,28.09
2023-05-14T12:33:58.032Z,28.08
2023-05-14T12:35:04.462Z,27.80
2023-05-14T12:36:20.474Z,27.86
2023-05-14T12:37:25.384Z,27.91
2023-05-14T12:38:29.361Z,27.36
2023-05-14T12:39:34.249Z,27.14
2023-05-14T12:40:37.750Z,26.94
2023-05-14T12:41:41.542Z,27.07
2023-05-14T12:42:44.587Z,26.87
2023-05-14T12:43:48.509Z,26.84
2023-05-14T12:44:51.504Z,26.84
2023-05-14T12:45:54.406Z,26.76
2023-05-14T12:46:58.281Z,26.67
2023-05-14T12:48:01.681Z,26.77
2023-05-14T12:49:04.641Z,26.75
2023-05-14T12:50:08.388Z,26.61
2023-05-14T12:51:12.002Z,26.61
2023-05-14T12:53:21.627Z,26.37
2023-05-14T12:54:25.274Z,26.27
2023-05-14T12:55:28.510Z,26.02
2023-05-14T12:56:32.679Z,25.89
2023-05-14T12:57:36.328Z,25.97
2023-05-14T12:58:39.621Z,25.96
2023-05-14T12:59:42.726Z,25.81
2023-05-14T13:00:46.499Z,25.78
2023-05-14T13:01:49.673Z,25.68
2023-05-14T13:02:52.927Z,25.62
2023-05-14T13:03:57.039Z,25.45
2023-05-14T13:05:03.687Z,25.40
2023-05-14T13:06:07.095Z,25.45
2023-05-14T13:07:10.689Z,25.39
2023-05-14T13:08:18.634Z,25.49
2023-05-14T13:09:22.027Z,25.48
2023-05-14T13:10:25.691Z,25.52
2023-05-14T13:11:31.232Z,25.40
2023-05-14T13:12:34.567Z,25.35
2023-05-14T13:13:38.096Z,25.23
2023-05-14T13:14:41.473Z,25.13
2023-05-14T13:15:47.676Z,25.08
2023-05-14T13:16:51.036Z,24.91
2023-05-14T13:17:54.036Z,24.87
2023-05-14T13:18:57.155Z,24.90
2023-05-14T13:20:00.983Z,24.87
2023-05-14T13:21:06.998Z,24.77
2023-05-14T13:22:10.270Z,24.79
2023-05-14T13:23:14.476Z,24.58
2023-05-14T13:24:18.504Z,24.48
2023-05-14T13:25:22.335Z,24.55
2023-05-14T13:26:28.810Z,24.53
2023-05-14T13:27:32.027Z,24.57
2023-05-14T13:28:35.497Z,24.48
2023-05-14T13:29:39.269Z,24.40
2023-05-14T13:30:42.801Z,24.39
2023-05-14T13:31:45.819Z,24.33
2023-05-14T13:32:49.408Z,24.43
2023-05-14T13:33:52.975Z,24.39
2023-05-14T13:34:56.733Z,24.41
2023-05-14T13:36:00.453Z,24.57
2023-05-14T13:37:04.389Z,24.53
2023-05-14T13:38:08.324Z,24.38
2023-05-14T13:39:15.208Z,24.41
2023-05-14T13:40:18.776Z,24.35
2023-05-14T13:41:22.532Z,24.28
2023-05-14T13:42:26.191Z,24.34
2023-05-14T13:43:32.382Z,24.26
2023-05-14T13:44:36.604Z,24.29
2023-05-14T13:45:40.233Z,24.21
2023-05-14T13:46:44.287Z,24.08
2023-05-14T13:47:48.785Z,24.09
2023-05-14T13:48:53.287Z,24.05
2023-05-14T13:49:57.548Z,24.13
2023-05-14T13:51:01.400Z,24.19
2023-05-14T13:52:04.960Z,24.26